createdAt,value
2017-06-15T00:00:35.646Z,0
2017-06-15T00:01:45.679Z,0
2017-06-15T00:02:55.726Z,0
2017-06-15T00:04:06.062Z,0
2017-06-15T00:05:16.099Z,0
2017-06-15T00:06:26.147Z,0
2017-06-15T00:07:36.492Z,0
2017-06-15T00:08:46.522Z,0
2017-06-15T00:09:56.866Z,0
2017-06-15T00:11:06.912Z,0
2017-06-15T00:12:17.293Z,0
2017-06-15T00:13:27.631Z,0
2017-06-15T00:14:37.989Z,0
2017-06-15T00:15:48.350Z,0
2017-06-15T00:16:58.069Z,0
2017-06-15T00:18:08.117Z,0
2017-06-15T00:19:17.839Z,0
2017-06-15T00:20:28.181Z,0
2017-06-15T00:21:38.530Z,0
2017-06-15T00:22:48.892Z,0
2017-06-15T00:23:59.304Z,0
2017-06-15T00:25:09.643Z,0
2017-06-15T00:26:19.686Z,0
2017-06-15T00:27:30.037Z,0
2017-06-15T00:28:40.411Z,0
2017-06-15T00:29:50.751Z,0
2017-06-15T00:31:01.104Z,0
2017-06-15T00:32:11.455Z,0
2017-06-15T00:33:21.799Z,0
2017-06-15T00:34:32.158Z,0
2017-06-15T00:35:42.239Z,0
2017-06-15T00:36:52.598Z,0
2017-06-15T00:38:02.668Z,0
2017-06-15T00:39:13.016Z,0
2017-06-15T00:40:23.366Z,0
2017-06-15T00:41:33.455Z,0
2017-06-15T00:42:43.807Z,0
2017-06-15T00:43:54.156Z,0
2017-06-15T00:45:04.189Z,0
2017-06-15T00:46:14.536Z,0
2017-06-15T00:47:24.893Z,0
2017-06-15T00:48:34.625Z,0
2017-06-15T00:49:44.675Z,0
2017-06-15T00:50:55.037Z,0
2017-06-15T00:52:05.071Z,0
2017-06-15T00:53:15.151Z,0
2017-06-15T00:54:25.498Z,0
2017-06-15T00:55:35.835Z,0
2017-06-15T00:56:45.886Z,0
2017-06-15T00:57:56.220Z,0
2017-06-15T00:59:06.310Z,0
2017-06-15T01:00:16.652Z,0
2017-06-15T01:01:26.999Z,0
2017-06-15T01:02:37.350Z,0
2017-06-15T01:03:47.692Z,0
2017-06-15T01:04:58.050Z,0
2017-06-15T01:06:08.424Z,0
2017-06-15T01:07:18.137Z,0
2017-06-15T01:08:28.474Z,0
2017-06-15T01:09:38.807Z,0
2017-06-15T01:10:48.834Z,0
2017-06-15T01:11:59.170Z,0
2017-06-15T01:13:09.513Z,0
2017-06-15T01:14:19.544Z,0
2017-06-15T01:15:29.886Z,0
2017-06-15T01:16:39.964Z,0
2017-06-15T01:17:50.304Z,0
2017-06-15T01:19:00.665Z,0
2017-06-15T01:20:11.002Z,0
2017-06-15T01:21:21.338Z,0
2017-06-15T01:22:31.366Z,0
2017-06-15T01:23:41.701Z,0
2017-06-15T01:24:51.749Z,0
2017-06-15T01:26:02.087Z,0
2017-06-15T01:27:12.424Z,0
2017-06-15T01:28:22.495Z,0
2017-06-15T01:29:32.526Z,0
2017-06-15T01:30:42.863Z,0
2017-06-15T01:31:52.899Z,0
2017-06-15T01:33:03.236Z,0
2017-06-15T01:34:13.623Z,0
2017-06-15T01:35:23.959Z,0
2017-06-15T01:36:34.297Z,0
2017-06-15T01:37:44.634Z,0
2017-06-15T01:38:54.981Z,0
2017-06-15T01:40:05.377Z,0
2017-06-15T01:41:15.718Z,0
2017-06-15T01:42:26.071Z,0
2017-06-15T01:43:36.413Z,0
2017-06-15T01:44:46.770Z,0
2017-06-15T01:47:40.326Z,0
2017-06-15T01:48:50.348Z,0
2017-06-15T01:50:00.702Z,0
2017-06-15T01:51:10.737Z,0
2017-06-15T01:52:21.073Z,0
2017-06-15T01:53:31.479Z,0
2017-06-15T01:54:41.823Z,0
2017-06-15T01:55:52.165Z,0
2017-06-15T01:57:02.526Z,0
2017-06-15T01:58:12.561Z,0
2017-06-15T01:59:22.644Z,0
2017-06-15T02:00:32.991Z,0
2017-06-15T02:01:43.334Z,0
2017-06-15T02:02:53.674Z,0
2017-06-15T02:04:03.700Z,0
2017-06-15T02:05:14.046Z,0
2017-06-15T02:06:24.377Z,0
2017-06-15T02:07:34.723Z,0
2017-06-15T02:08:45.054Z,0
2017-06-15T02:09:55.410Z,4
2017-06-15T02:11:05.177Z,4
2017-06-15T02:12:15.231Z,4
2017-06-15T02:13:25.612Z,0
2017-06-15T02:14:35.977Z,0
2017-06-15T02:15:46.325Z,4
2017-06-15T02:16:56.716Z,4
2017-06-15T02:18:06.744Z,4
2017-06-15T02:19:17.080Z,4
2017-06-15T02:20:27.418Z,4
2017-06-15T02:21:37.754Z,4
2017-06-15T02:22:48.157Z,4
2017-06-15T02:23:58.495Z,8
2017-06-15T02:25:08.549Z,8
2017-06-15T02:26:18.904Z,12
2017-06-15T02:27:29.241Z,12
2017-06-15T02:28:39.324Z,12
2017-06-15T02:29:49.675Z,16
2017-06-15T02:31:00.015Z,16
2017-06-15T02:32:09.734Z,16
2017-06-15T02:33:19.756Z,20
2017-06-15T02:34:29.483Z,24
2017-06-15T02:35:39.828Z,28
2017-06-15T02:36:49.561Z,36
2017-06-15T02:37:59.279Z,40
2017-06-15T02:39:08.994Z,44
2017-06-15T02:40:19.076Z,52
2017-06-15T02:41:29.417Z,56
2017-06-15T02:42:39.755Z,64
2017-06-15T02:43:49.776Z,76
2017-06-15T02:45:00.123Z,80
2017-06-15T02:46:10.209Z,88
2017-06-15T02:47:19.909Z,100
2017-06-15T02:48:30.248Z,108
2017-06-15T02:49:40.272Z,124
2017-06-15T02:50:50.597Z,136
2017-06-15T02:52:00.994Z,152
2017-06-15T02:53:11.340Z,168
2017-06-15T02:54:21.052Z,180
2017-06-15T02:55:31.093Z,200
2017-06-15T02:56:41.141Z,216
2017-06-15T02:57:51.207Z,236
2017-06-15T02:59:01.540Z,256
2017-06-15T03:00:11.575Z,276
2017-06-15T03:01:21.609Z,296
2017-06-15T03:33:11.475Z,1192
2017-06-15T03:34:21.802Z,1224
2017-06-15T03:35:31.840Z,1256
2017-06-15T03:36:42.179Z,1288
2017-06-15T03:37:52.512Z,1320
2017-06-15T03:39:02.582Z,1344
2017-06-15T03:40:12.607Z,1380
2017-06-15T03:41:22.949Z,1404
2017-06-15T03:42:33.279Z,1432
2017-06-15T03:43:42.998Z,1464
2017-06-15T03:44:53.384Z,1496
2017-06-15T03:46:03.444Z,1528
2017-06-15T03:47:13.464Z,1560
2017-06-15T03:48:23.805Z,1652
2017-06-15T03:49:34.161Z,1908
2017-06-15T03:50:43.928Z,2052
2017-06-15T03:51:54.273Z,2168
2017-06-15T03:53:04.602Z,2004
2017-06-15T03:54:14.637Z,1844
2017-06-15T03:55:24.984Z,1792
2017-06-15T03:56:35.383Z,1816
2017-06-15T03:57:45.730Z,1848
2017-06-15T03:58:56.064Z,1880
2017-06-15T04:00:06.412Z,1908
2017-06-15T04:01:16.438Z,1944
2017-06-15T04:02:26.484Z,1976
2017-06-15T04:03:36.848Z,2008
2017-06-15T04:04:47.183Z,2044
2017-06-15T04:05:56.919Z,2076
2017-06-15T04:07:07.302Z,2112
2017-06-15T04:08:17.362Z,2148
2017-06-15T04:09:27.718Z,2180
2017-06-15T04:10:37.746Z,2216
2017-06-15T04:11:48.081Z,2252
2017-06-15T04:12:58.470Z,2288
2017-06-15T04:14:08.819Z,2324
2017-06-15T04:15:18.854Z,2360
2017-06-15T04:16:28.881Z,2400
2017-06-15T04:17:39.223Z,4572
2017-06-15T04:18:49.258Z,13824
2017-06-15T04:19:59.288Z,18688
2017-06-15T04:21:09.629Z,18464
2017-06-15T04:22:19.995Z,18752
2017-06-15T04:23:30.334Z,18528
2017-06-15T04:24:40.724Z,18240
2017-06-15T04:25:50.757Z,18848
2017-06-15T04:27:01.111Z,18816
2017-06-15T04:28:11.443Z,18400
2017-06-15T04:29:20.850Z,18080
2017-06-15T04:30:30.956Z,18176
2017-06-15T04:31:40.989Z,17952
2017-06-15T04:32:51.322Z,18176
2017-06-15T04:34:01.678Z,18176
2017-06-15T04:35:11.710Z,18016
2017-06-15T04:36:22.109Z,17888
2017-06-15T04:37:32.453Z,18144
2017-06-15T04:38:42.791Z,18368
2017-06-15T04:39:53.151Z,18272
2017-06-15T04:41:02.873Z,18464
2017-06-15T04:42:13.284Z,18624
2017-06-15T04:43:23.621Z,18720
2017-06-15T04:44:33.974Z,18368
2017-06-15T04:45:44.316Z,18144
2017-06-15T04:46:54.657Z,18208
2017-06-15T04:48:05.003Z,18560
2017-06-15T04:49:15.052Z,18368
2017-06-15T04:50:25.404Z,17888
2017-06-15T04:51:35.750Z,17792
2017-06-15T04:52:46.120Z,17152
2017-06-15T04:53:56.460Z,16736
2017-06-15T04:55:05.879Z,16448
2017-06-15T04:56:16.222Z,16384
2017-06-15T04:57:26.274Z,16224
2017-06-15T04:58:36.609Z,15936
2017-06-15T04:59:46.958Z,15616
2017-06-15T05:00:57.303Z,15520
2017-06-15T05:02:07.662Z,15808
2017-06-15T05:03:17.704Z,16064
2017-06-15T05:04:28.056Z,16096
2017-06-15T05:05:38.451Z,15840
2017-06-15T05:06:48.802Z,15744
2017-06-15T05:07:59.159Z,15936
2017-06-15T05:09:09.512Z,16352
2017-06-15T05:10:19.862Z,16256
2017-06-15T05:11:29.963Z,16032
2017-06-15T05:12:40.562Z,15584
2017-06-15T05:13:50.604Z,15744
2017-06-15T05:15:00.959Z,15744
2017-06-15T05:16:11.312Z,15744
2017-06-15T05:17:21.672Z,16064
2017-06-15T05:18:31.707Z,16288
2017-06-15T05:19:42.056Z,16000
2017-06-15T05:20:52.403Z,15968
2017-06-15T05:22:02.439Z,16352
2017-06-15T05:23:12.841Z,16672
2017-06-15T05:24:23.188Z,16480
2017-06-15T05:25:33.529Z,16384
2017-06-15T05:26:43.883Z,16320
2017-06-15T05:27:54.234Z,16480
2017-06-15T05:29:04.012Z,16480
2017-06-15T05:30:14.372Z,16320
2017-06-15T05:31:24.737Z,16224
2017-06-15T05:32:34.470Z,16320
2017-06-15T05:33:44.823Z,16512
2017-06-15T05:34:54.878Z,16576
2017-06-15T05:36:05.270Z,16672
2017-06-15T05:37:15.644Z,16576
2017-06-15T05:38:26.024Z,16192
2017-06-15T05:39:35.746Z,16256
2017-06-15T05:40:46.156Z,16160
2017-06-15T05:41:56.199Z,16192
2017-06-15T05:43:06.246Z,16384
2017-06-15T05:44:16.601Z,16256
2017-06-15T05:45:26.330Z,16064
2017-06-15T05:46:36.418Z,16000
2017-06-15T05:47:46.450Z,15808
2017-06-15T05:48:56.496Z,15904
2017-06-15T05:50:06.552Z,16128
2017-06-15T05:51:16.934Z,16192
2017-06-15T05:52:27.335Z,16256
2017-06-15T05:53:37.388Z,16288
2017-06-15T05:54:47.424Z,15744
2017-06-15T05:55:57.461Z,15360
2017-06-15T05:57:07.503Z,15392
2017-06-15T05:58:17.236Z,15456
2017-06-15T05:59:27.598Z,15520
2017-06-15T06:00:37.654Z,15424
2017-06-15T06:01:47.694Z,15328
2017-06-15T06:02:58.064Z,15264
2017-06-15T06:04:08.154Z,15008
2017-06-15T06:05:18.509Z,15072
2017-06-15T06:06:28.872Z,14912
2017-06-15T06:07:38.941Z,14544
2017-06-15T06:08:48.668Z,14456
2017-06-15T06:09:59.064Z,14296
2017-06-15T06:11:09.421Z,14208
2017-06-15T06:12:19.788Z,13892
2017-06-15T06:13:29.565Z,13648
2017-06-15T06:14:39.904Z,13564
2017-06-15T06:15:50.245Z,13400
2017-06-15T06:16:59.965Z,13356
2017-06-15T06:18:10.321Z,13232
2017-06-15T06:19:20.654Z,13180
2017-06-15T06:20:31.007Z,12992
2017-06-15T06:21:41.406Z,12892
2017-06-15T06:22:51.748Z,12636
2017-06-15T06:24:01.502Z,12344
2017-06-15T06:25:11.864Z,12080
2017-06-15T06:26:21.914Z,11964
2017-06-15T06:27:32.321Z,11876
2017-06-15T06:28:42.672Z,11728
2017-06-15T06:29:53.042Z,11612
2017-06-15T06:31:03.395Z,11588
2017-06-15T06:32:13.743Z,11404
2017-06-15T06:33:24.098Z,11284
2017-06-15T06:34:34.140Z,11128
2017-06-15T06:35:44.187Z,10980
2017-06-15T06:36:54.267Z,10848
2017-06-15T06:38:04.624Z,10732
2017-06-15T06:39:15.018Z,10676
2017-06-15T06:40:25.399Z,10472
2017-06-15T06:41:35.770Z,10412
2017-06-15T06:42:45.495Z,10240
2017-06-15T06:43:55.839Z,10156
2017-06-15T06:45:05.942Z,9940
2017-06-15T06:46:16.305Z,9804
2017-06-15T06:47:26.675Z,9552
2017-06-15T06:48:36.718Z,9428
2017-06-15T06:49:47.077Z,9172
2017-06-15T06:50:57.126Z,9204
2017-06-15T06:52:07.170Z,9080
2017-06-15T06:53:17.513Z,8908
2017-06-15T06:54:27.888Z,8824
2017-06-15T06:55:37.917Z,8640
2017-06-15T06:56:48.035Z,8504
2017-06-15T06:57:58.059Z,8316
2017-06-15T06:59:07.772Z,8172
2017-06-15T07:00:18.137Z,7996
2017-06-15T07:01:28.506Z,7840
2017-06-15T07:02:38.239Z,7640
2017-06-15T07:03:48.602Z,7496
2017-06-15T07:04:58.338Z,7332
2017-06-15T07:06:08.373Z,7188
2017-06-15T07:07:18.768Z,7024
2017-06-15T07:08:28.811Z,6868
2017-06-15T07:09:39.154Z,6740
2017-06-15T07:10:49.185Z,6584
2017-06-15T07:11:59.522Z,6436
2017-06-15T07:13:09.870Z,6272
2017-06-15T07:14:20.231Z,5904
2017-06-15T07:15:30.286Z,5224
2017-06-15T07:16:40.638Z,4820
2017-06-15T07:17:50.694Z,4776
2017-06-15T07:19:01.061Z,4760
2017-06-15T07:20:11.097Z,4768
2017-06-15T07:21:21.447Z,4804
2017-06-15T07:22:31.800Z,4820
2017-06-15T07:23:41.850Z,4840
2017-06-15T07:24:51.890Z,4864
2017-06-15T07:26:02.274Z,4880
2017-06-15T07:27:12.631Z,4916
2017-06-15T07:28:22.982Z,4944
2017-06-15T07:29:32.758Z,4964
2017-06-15T07:30:43.109Z,4980
2017-06-15T07:31:53.513Z,4988
2017-06-15T07:33:03.559Z,4988
2017-06-15T07:34:13.910Z,5012
2017-06-15T07:35:23.958Z,4988
2017-06-15T07:36:34.328Z,4996
2017-06-15T07:37:44.423Z,5056
2017-06-15T07:38:54.481Z,5068
2017-06-15T07:40:04.842Z,5036
2017-06-15T07:41:15.209Z,5064
2017-06-15T07:42:25.552Z,5056
2017-06-15T07:43:35.975Z,5072
2017-06-15T07:44:46.326Z,5124
2017-06-15T07:45:56.370Z,5100
2017-06-15T07:47:06.722Z,5120
2017-06-15T07:48:17.096Z,5164
2017-06-15T07:49:27.194Z,5204
2017-06-15T07:50:37.600Z,5184
2017-06-15T07:51:47.957Z,5224
2017-06-15T07:52:57.690Z,5244
2017-06-15T07:54:07.741Z,5244
2017-06-15T07:55:18.154Z,5256
2017-06-15T07:56:28.204Z,5236
2017-06-15T07:57:38.566Z,5276
2017-06-15T07:58:48.917Z,5248
2017-06-15T07:59:59.270Z,5320
2017-06-15T08:01:09.682Z,5328
2017-06-15T08:02:20.038Z,5164
2017-06-15T08:03:30.089Z,5152
2017-06-15T08:04:40.443Z,5200
2017-06-15T08:05:50.799Z,5240
2017-06-15T08:07:01.094Z,5316
2017-06-15T08:08:11.447Z,5240
2017-06-15T08:09:21.163Z,5300
2017-06-15T08:10:31.195Z,5288
2017-06-15T08:11:40.923Z,5252
2017-06-15T08:12:50.977Z,5300
2017-06-15T08:14:01.352Z,5344
2017-06-15T08:15:11.911Z,5372
2017-06-15T08:16:22.264Z,5420
2017-06-15T08:17:32.612Z,5384
2017-06-15T08:18:42.382Z,5416
2017-06-15T08:19:52.415Z,5384
2017-06-15T08:21:02.790Z,5404
2017-06-15T08:22:12.844Z,5520
2017-06-15T08:23:22.895Z,5504
2017-06-15T08:24:33.247Z,5504
2017-06-15T08:25:43.297Z,5516
2017-06-15T08:26:53.335Z,5436
2017-06-15T08:28:03.379Z,5468
2017-06-15T08:29:13.424Z,5500
2017-06-15T08:30:23.514Z,5464
2017-06-15T08:31:33.856Z,5532
2017-06-15T08:32:43.888Z,5576
2017-06-15T08:33:54.242Z,5560
2017-06-15T08:35:03.972Z,5592
2017-06-15T08:36:13.694Z,5596
2017-06-15T08:37:23.741Z,5480
2017-06-15T08:38:34.092Z,5496
2017-06-15T08:39:44.464Z,5616
2017-06-15T08:40:54.507Z,5560
2017-06-15T08:42:04.924Z,5624
2017-06-15T08:43:15.275Z,5592
2017-06-15T08:44:25.696Z,5564
2017-06-15T08:45:36.065Z,5564
2017-06-15T08:46:46.129Z,5568
2017-06-15T08:47:56.566Z,5576
2017-06-15T08:49:06.922Z,5564
2017-06-15T08:50:16.975Z,5612
2017-06-15T08:51:27.352Z,5644
2017-06-15T08:52:37.404Z,5676
2017-06-15T08:53:47.575Z,5720
2017-06-15T08:54:57.939Z,5736
2017-06-15T08:56:08.293Z,5784
2017-06-15T08:57:18.343Z,5760
2017-06-15T08:58:28.078Z,5780
2017-06-15T08:59:38.135Z,5784
2017-06-15T09:00:48.166Z,5808
2017-06-15T09:01:58.224Z,5812
2017-06-15T09:03:08.582Z,5784
2017-06-15T09:04:18.933Z,5788
2017-06-15T09:05:28.973Z,5808
2017-06-15T09:06:39.357Z,5852
2017-06-15T09:07:49.732Z,5864
2017-06-15T09:09:00.070Z,5800
2017-06-15T09:10:10.115Z,5852
2017-06-15T09:11:20.522Z,5884
2017-06-15T09:12:30.562Z,5880
2017-06-15T09:13:40.625Z,5860
2017-06-15T09:14:50.983Z,5836
2017-06-15T09:16:01.332Z,5800
2017-06-15T09:17:11.735Z,5680
2017-06-15T09:18:22.089Z,5756
2017-06-15T09:19:32.135Z,5720
2017-06-15T09:20:42.492Z,5860
2017-06-15T09:21:52.859Z,5924
2017-06-15T09:23:02.947Z,5988
2017-06-15T09:24:13.297Z,6032
2017-06-15T09:25:23.332Z,6056
2017-06-15T09:26:33.690Z,6080
2017-06-15T09:27:44.042Z,6092
2017-06-15T09:28:54.451Z,6056
2017-06-15T09:30:04.812Z,6084
2017-06-15T09:31:15.179Z,6128
2017-06-15T09:32:25.227Z,6096
2017-06-15T09:33:35.583Z,6100
2017-06-15T09:34:45.664Z,6092
2017-06-15T09:35:56.027Z,6096
2017-06-15T09:37:06.379Z,6116
2017-06-15T09:38:16.762Z,6124
2017-06-15T09:39:26.813Z,6140
2017-06-15T09:40:36.597Z,6124
2017-06-15T09:41:46.948Z,6084
2017-06-15T09:42:57.298Z,6152
2017-06-15T09:44:07.657Z,6200
2017-06-15T09:45:17.698Z,6192
2017-06-15T09:46:27.784Z,6220
2017-06-15T09:47:38.150Z,6248
2017-06-15T09:48:48.513Z,6256
2017-06-15T09:49:58.561Z,6092
2017-06-15T09:51:08.911Z,6224
2017-06-15T09:52:19.018Z,6288
2017-06-15T09:53:29.361Z,6324
2017-06-15T09:54:39.111Z,6304
2017-06-15T09:55:49.463Z,6268
2017-06-15T09:56:59.836Z,6240
2017-06-15T09:58:09.928Z,6272
2017-06-15T09:59:20.286Z,6304
2017-06-15T10:00:30.340Z,6228
2017-06-15T10:01:40.382Z,6272
2017-06-15T10:02:50.749Z,6352
2017-06-15T10:04:01.106Z,6404
2017-06-15T10:05:10.842Z,6388
2017-06-15T10:06:21.210Z,6380
2017-06-15T10:07:31.247Z,6360
2017-06-15T10:08:40.995Z,6396
2017-06-15T10:09:51.646Z,6400
2017-06-15T10:11:01.697Z,6432
2017-06-15T10:12:12.058Z,6424
2017-06-15T10:13:22.414Z,6512
2017-06-15T10:14:32.443Z,6468
2017-06-15T10:15:42.543Z,6492
2017-06-15T10:16:52.947Z,6516
2017-06-15T10:18:03.313Z,6548
2017-06-15T10:19:13.375Z,6576
2017-06-15T10:20:23.761Z,6528
2017-06-15T10:21:33.837Z,6576
2017-06-15T10:22:43.567Z,6564
2017-06-15T10:23:53.945Z,6548
2017-06-15T10:25:03.987Z,6572
2017-06-15T10:26:14.355Z,6576
2017-06-15T10:27:24.132Z,6632
2017-06-15T10:28:33.844Z,6588
2017-06-15T10:29:43.902Z,6596
2017-06-15T10:30:54.283Z,6612
2017-06-15T10:32:04.660Z,6652
2017-06-15T10:33:14.760Z,6628
2017-06-15T10:34:25.118Z,6680
2017-06-15T10:35:35.187Z,6740
2017-06-15T10:36:45.541Z,6764
2017-06-15T10:37:55.878Z,6784
2017-06-15T10:39:06.294Z,6788
2017-06-15T10:40:15.719Z,6784
2017-06-15T10:41:26.067Z,6820
2017-06-15T10:42:36.421Z,6852
2017-06-15T10:43:46.795Z,6848
2017-06-15T10:44:57.187Z,6860
2017-06-15T10:46:07.556Z,6844
2017-06-15T10:47:17.922Z,6752
2017-06-15T10:48:28.289Z,6772
2017-06-15T10:49:38.465Z,6784
2017-06-15T10:50:48.829Z,6848
2017-06-15T10:51:59.179Z,6864
2017-06-15T10:53:09.541Z,6900
2017-06-15T10:54:19.592Z,6912
2017-06-15T10:55:29.634Z,6868
2017-06-15T10:56:39.722Z,6928
2017-06-15T10:57:49.773Z,6972
2017-06-15T10:59:00.135Z,6936
2017-06-15T11:00:10.492Z,6956
2017-06-15T11:01:20.858Z,6948
2017-06-15T11:02:30.946Z,6948
2017-06-15T11:03:41.318Z,6936
2017-06-15T11:04:51.674Z,6988
2017-06-15T11:06:02.041Z,7080
2017-06-15T11:07:12.101Z,7088
2017-06-15T11:08:22.196Z,7120
2017-06-15T11:09:32.269Z,7152
2017-06-15T11:10:42.289Z,7168
2017-06-15T11:11:52.644Z,7148
2017-06-15T11:13:03.015Z,7144
2017-06-15T11:14:13.081Z,7136
2017-06-15T11:15:23.459Z,7136
2017-06-15T11:16:33.822Z,7108
2017-06-15T11:17:44.181Z,7120
2017-06-15T11:18:54.278Z,7148
2017-06-15T11:20:04.318Z,7156
2017-06-15T11:21:14.683Z,7168
2017-06-15T11:22:24.737Z,7200
2017-06-15T11:23:35.115Z,7196
2017-06-15T11:24:45.533Z,7220
2017-06-15T11:25:55.577Z,7228
2017-06-15T11:27:05.943Z,7204
2017-06-15T11:28:16.444Z,7200
2017-06-15T11:29:26.491Z,7012
2017-06-15T11:30:36.269Z,7104
2017-06-15T11:31:46.639Z,7128
2017-06-15T11:32:56.696Z,7244
2017-06-15T11:34:07.054Z,7228
2017-06-15T11:35:17.395Z,7260
2017-06-15T11:36:27.807Z,7288
2017-06-15T11:37:37.850Z,7312
2017-06-15T11:38:47.890Z,7304
2017-06-15T11:39:57.930Z,7272
2017-06-15T11:41:08.279Z,7288
2017-06-15T11:42:18.697Z,7272
2017-06-15T11:43:29.057Z,7260
2017-06-15T11:44:39.419Z,7252
2017-06-15T11:45:49.457Z,7236
2017-06-15T11:46:59.506Z,7256
2017-06-15T11:48:09.905Z,7244
2017-06-15T11:49:19.963Z,7236
2017-06-15T11:50:30.351Z,7260
2017-06-15T11:51:40.399Z,7260
2017-06-15T11:52:50.762Z,7280
2017-06-15T11:54:00.859Z,7276
2017-06-15T11:55:10.915Z,7248
2017-06-15T11:56:21.284Z,7264
2017-06-15T11:57:31.648Z,7272
2017-06-15T11:58:41.694Z,7244
2017-06-15T11:59:52.105Z,7248
2017-06-15T12:01:02.445Z,7260
2017-06-15T12:02:12.501Z,7272
2017-06-15T12:03:22.877Z,7272
2017-06-15T12:04:32.929Z,7244
2017-06-15T12:05:43.476Z,7228
2017-06-15T12:06:53.839Z,7220
2017-06-15T12:08:04.231Z,7212
2017-06-15T12:09:14.597Z,7232
2017-06-15T12:10:24.343Z,7216
2017-06-15T12:11:34.694Z,7220
2017-06-15T12:12:45.054Z,7236
2017-06-15T12:13:55.094Z,7236
2017-06-15T12:15:05.471Z,7224
2017-06-15T12:16:15.828Z,7232
2017-06-15T12:17:26.250Z,7224
2017-06-15T12:18:36.605Z,7216
2017-06-15T12:19:46.641Z,7236
2017-06-15T12:20:57.018Z,7232
2017-06-15T12:22:07.362Z,7228
2017-06-15T12:23:17.149Z,7228
2017-06-15T12:24:27.498Z,7212
2017-06-15T12:25:37.871Z,7204
2017-06-15T12:26:48.220Z,7212
2017-06-15T12:27:58.594Z,7224
2017-06-15T12:29:08.692Z,7216
2017-06-15T12:30:19.074Z,7224
2017-06-15T12:31:29.439Z,7204
2017-06-15T12:32:39.797Z,7192
2017-06-15T12:33:49.850Z,7184
2017-06-15T12:35:00.280Z,7188
2017-06-15T12:36:10.631Z,7180
2017-06-15T12:37:20.995Z,7172
2017-06-15T12:38:31.339Z,7160
2017-06-15T12:39:41.699Z,7160
2017-06-15T12:40:51.800Z,7136
2017-06-15T12:42:02.165Z,7104
2017-06-15T12:43:12.538Z,7112
2017-06-15T12:44:22.908Z,7100
2017-06-15T12:45:32.950Z,7088
2017-06-15T12:46:43.317Z,7080
2017-06-15T12:47:53.675Z,7060
2017-06-15T12:49:04.057Z,7052
2017-06-15T12:50:14.117Z,7036
2017-06-15T12:51:24.167Z,7028
2017-06-15T12:52:34.592Z,7024
2017-06-15T12:53:44.643Z,7012
2017-06-15T12:54:54.992Z,6996
2017-06-15T12:56:05.046Z,6980
2017-06-15T12:57:15.400Z,6980
2017-06-15T12:58:25.756Z,6968
2017-06-15T12:59:36.118Z,6952
2017-06-15T13:00:45.854Z,6948
2017-06-15T13:01:55.913Z,6932
2017-06-15T13:03:06.278Z,6908
2017-06-15T13:04:16.698Z,6884
2017-06-15T13:05:26.775Z,6876
2017-06-15T13:06:37.142Z,6876
2017-06-15T13:07:47.496Z,6852
2017-06-15T13:08:57.848Z,6856
2017-06-15T13:10:08.254Z,6840
2017-06-15T13:11:18.610Z,6840
2017-06-15T13:12:28.676Z,6836
2017-06-15T13:13:38.725Z,6824
2017-06-15T13:14:49.090Z,6808
2017-06-15T13:15:59.512Z,6792
2017-06-15T13:17:09.868Z,6780
2017-06-15T13:18:20.221Z,6760
2017-06-15T13:19:30.265Z,6744
2017-06-15T13:20:40.629Z,6720
2017-06-15T13:21:51.000Z,6700
2017-06-15T13:23:01.358Z,6684
2017-06-15T13:24:11.698Z,6664
2017-06-15T13:25:22.061Z,6656
2017-06-15T13:26:32.120Z,6640
2017-06-15T13:27:42.211Z,6624
2017-06-15T13:28:52.589Z,6604
2017-06-15T13:30:02.324Z,6572
2017-06-15T13:31:12.354Z,6576
2017-06-15T13:32:22.411Z,6560
2017-06-15T13:33:32.834Z,6544
2017-06-15T13:34:43.215Z,6528
2017-06-15T13:35:53.590Z,6508
2017-06-15T13:37:03.958Z,6492
2017-06-15T13:38:14.315Z,6484
2017-06-15T13:39:24.757Z,6472
2017-06-15T13:40:35.118Z,6456
2017-06-15T13:41:45.191Z,6448
2017-06-15T13:42:55.566Z,6432
2017-06-15T13:44:05.947Z,6420
2017-06-15T13:45:16.366Z,6400
2017-06-15T13:46:26.730Z,6376
2017-06-15T13:47:37.092Z,6360
2017-06-15T13:48:47.472Z,6344
2017-06-15T13:49:57.519Z,6328
2017-06-15T13:51:07.935Z,6312
2017-06-15T13:52:17.988Z,6308
2017-06-15T13:53:28.035Z,6296
2017-06-15T13:54:38.105Z,6288
2017-06-15T13:55:48.474Z,6280
2017-06-15T13:56:58.222Z,6272
2017-06-15T13:58:08.272Z,6252
2017-06-15T13:59:18.619Z,6208
2017-06-15T14:00:28.965Z,6244
2017-06-15T14:01:39.346Z,6228
2017-06-15T14:02:48.815Z,6204
2017-06-15T14:03:59.194Z,6176
2017-06-15T14:05:09.570Z,6152
2017-06-15T14:06:19.919Z,6156
2017-06-15T14:07:30.267Z,6128
2017-06-15T14:08:40.608Z,6104
2017-06-15T14:09:50.651Z,6120
2017-06-15T14:11:01.017Z,6080
2017-06-15T14:12:11.078Z,6064
2017-06-15T14:13:21.442Z,6048
2017-06-15T14:14:31.857Z,6032
2017-06-15T14:15:41.904Z,6012
2017-06-15T14:16:51.967Z,5984
2017-06-15T14:18:02.349Z,5956
2017-06-15T14:19:12.717Z,5952
2017-06-15T14:20:23.126Z,5948
2017-06-15T14:21:33.492Z,5896
2017-06-15T14:22:43.870Z,5912
2017-06-15T14:23:54.224Z,5880
2017-06-15T14:25:04.269Z,5872
2017-06-15T14:26:14.692Z,5864
2017-06-15T14:27:25.247Z,5836
2017-06-15T14:28:35.613Z,5812
2017-06-15T14:29:45.965Z,5812
2017-06-15T14:30:56.335Z,5800
2017-06-15T14:32:06.451Z,5768
2017-06-15T14:33:16.809Z,5756
2017-06-15T14:34:27.171Z,5748
2017-06-15T14:35:37.548Z,5724
2017-06-15T14:36:47.616Z,5684
2017-06-15T14:37:57.752Z,5504
2017-06-15T14:39:08.120Z,5592
2017-06-15T14:40:18.479Z,5640
2017-06-15T14:41:28.858Z,5640
2017-06-15T14:42:39.224Z,5628
2017-06-15T14:43:49.290Z,5620
2017-06-15T14:44:59.662Z,5604
2017-06-15T14:46:10.024Z,5584
2017-06-15T14:47:20.380Z,5548
2017-06-15T14:48:30.738Z,5548
2017-06-15T14:49:41.137Z,5528
2017-06-15T14:50:51.501Z,5512
2017-06-15T14:52:01.543Z,5492
2017-06-15T14:53:11.594Z,5492
2017-06-15T14:54:21.953Z,5460
2017-06-15T14:55:32.362Z,5432
2017-06-15T14:56:42.716Z,5412
2017-06-15T14:57:53.088Z,5356
2017-06-15T14:59:03.129Z,5344
2017-06-15T15:00:13.496Z,5320
2017-06-15T15:01:23.255Z,5312
2017-06-15T15:02:33.290Z,5288
2017-06-15T15:03:43.645Z,5268
2017-06-15T15:04:53.383Z,5252
2017-06-15T15:06:03.756Z,5224
2017-06-15T15:07:14.141Z,5176
2017-06-15T15:08:24.185Z,5168
2017-06-15T15:09:34.531Z,5152
2017-06-15T15:10:44.580Z,5132
2017-06-15T15:11:54.948Z,5112
2017-06-15T15:13:05.067Z,5108
2017-06-15T15:14:15.100Z,5092
2017-06-15T15:15:25.152Z,5072
2017-06-15T15:16:35.525Z,5060
2017-06-15T15:17:45.257Z,5056
2017-06-15T15:18:55.696Z,5040
2017-06-15T15:20:06.060Z,5016
2017-06-15T15:21:16.417Z,4996
2017-06-15T15:22:26.778Z,4980
2017-06-15T15:23:37.151Z,4964
2017-06-15T15:24:47.248Z,4952
2017-06-15T15:25:57.293Z,4928
2017-06-15T15:27:07.652Z,4920
2017-06-15T15:28:18.018Z,4900
2017-06-15T15:29:28.399Z,4884
2017-06-15T15:30:38.753Z,4860
2017-06-15T15:31:48.812Z,4844
2017-06-15T15:32:58.861Z,4832
2017-06-15T15:34:09.231Z,4800
2017-06-15T15:35:19.269Z,4784
2017-06-15T15:36:28.740Z,4772
2017-06-15T15:37:39.090Z,4744
2017-06-15T15:38:49.443Z,4716
2017-06-15T15:39:59.816Z,4688
2017-06-15T15:41:09.846Z,4664
2017-06-15T15:42:19.949Z,4660
2017-06-15T15:43:30.319Z,4632
2017-06-15T15:44:40.669Z,4612
2017-06-15T15:45:51.024Z,4592
2017-06-15T15:47:01.371Z,4560
2017-06-15T15:48:11.799Z,4536
2017-06-15T15:49:22.135Z,4536
2017-06-15T15:50:32.481Z,4504
2017-06-15T15:51:42.530Z,4492
2017-06-15T15:52:52.880Z,4468
2017-06-15T15:54:03.299Z,4452
2017-06-15T15:55:13.645Z,4420
2017-06-15T15:56:23.681Z,4396
2017-06-15T15:57:34.043Z,4380
2017-06-15T15:58:43.774Z,4364
2017-06-15T15:59:53.870Z,4316
2017-06-15T16:01:04.249Z,4280
2017-06-15T16:02:14.616Z,4256
2017-06-15T16:03:24.345Z,4204
2017-06-15T16:04:34.082Z,4200
2017-06-15T16:05:44.451Z,4104
2017-06-15T16:06:54.509Z,3984
2017-06-15T16:08:04.871Z,4080
2017-06-15T16:09:14.910Z,4048
2017-06-15T16:10:25.283Z,4020
2017-06-15T16:11:35.698Z,4052
2017-06-15T16:12:45.748Z,4012
2017-06-15T16:13:56.106Z,3960
2017-06-15T16:15:06.462Z,3888
2017-06-15T16:16:16.815Z,3884
2017-06-15T16:17:27.212Z,3764
2017-06-15T16:18:37.580Z,3652